Kezdőlap
METAR-TAF:

METAR-TAF

Repülőterek :

Goshen Municipal Airport

Goshen, Indiana, Amerikai Egyesült Államok

földrajzi szélesség: 41-31-34N, földrajzi hosszúság: 085-47-12W, magasság: 252 m

Jelenlegi meteorológiai megfigyelések

A jelentés 52 perccel ezelõtt készült, 09:53 UTC
Szélcsend
Hőmérséklet 14°C
Páratartalom 100%
Légköri nyomás 1020 hPa
Látótávolság: 9.7 km
Derült ég
Párásság

METAR: KGSH 210953Z AUTO 00000KT 6SM BR CLR 14/14 A3012 RMK AO2 RAE10 SLP196 P0000 T01390139

Idő: 06:45 (10:45 UTC)


TAF: hiányzik

Meteorológiai megfigyelések és előrejelzések több, mint 4000 repülőtéren (METAR és TAF jelentéseket).

A térképen piros és sárga pontok jelzik az elérhető meteorológiai állomásokat.

Mozgassa az egeret a pont fölött, hogy megjelenjen az állomás neve.

Azután kattintson az időjárási megfigyelések és előrejelzések megtekintéséhez.

A térkép megváltoztatása: kattintson a fekete keresztel jelölt zöld gombra ráközelítéshez, a vonallal jelölt zöld gombra távolításhoz, vagy a zöld nyilakra a szomszédos térképek eléréséhez.


METAR-TAF: